createdAt,value
2017-07-18T00:00:37.400Z,31.50
2017-07-18T00:03:05.032Z,31.60
2017-07-18T00:05:33.362Z,31.60
2017-07-18T00:08:01.087Z,31.60
2017-07-18T00:10:29.303Z,31.80
2017-07-18T00:12:56.866Z,31.70
2017-07-18T00:15:24.467Z,31.80
2017-07-18T00:17:52.070Z,31.80
2017-07-18T00:20:19.659Z,32.00
2017-07-18T00:22:47.615Z,32.10
2017-07-18T00:25:15.650Z,32.10
2017-07-18T00:27:43.519Z,32.20
2017-07-18T00:30:11.076Z,32.10
2017-07-18T00:32:39.516Z,32.10
2017-07-18T00:35:07.083Z,32.20
2017-07-18T00:37:35.419Z,32.20
2017-07-18T00:40:03.044Z,32.40
2017-07-18T00:42:31.356Z,32.30
2017-07-18T00:44:58.950Z,32.30
2017-07-18T00:47:27.302Z,32.50
2017-07-18T00:49:54.862Z,32.50
2017-07-18T00:52:23.232Z,32.20
2017-07-18T00:54:50.831Z,32.20
2017-07-18T00:57:19.150Z,32.10
2017-07-18T00:59:46.706Z,32.10
2017-07-18T01:02:15.143Z,32.00
2017-07-18T01:04:42.711Z,31.90
2017-07-18T01:07:10.302Z,32.00
2017-07-18T01:09:37.947Z,31.80
2017-07-18T01:12:05.524Z,31.90
2017-07-18T01:14:33.091Z,31.90
2017-07-18T01:17:00.682Z,32.00
2017-07-18T01:19:28.254Z,32.00
2017-07-18T01:21:56.627Z,32.40
2017-07-18T01:24:24.394Z,32.30
2017-07-18T01:26:51.986Z,32.50
2017-07-18T01:29:19.578Z,32.60
2017-07-18T01:31:47.190Z,32.40
2017-07-18T01:34:14.786Z,32.40
2017-07-18T01:36:42.364Z,32.30
2017-07-18T01:39:10.015Z,32.20
2017-07-18T01:41:37.943Z,32.10
2017-07-18T01:44:05.709Z,32.00
2017-07-18T01:46:33.355Z,31.90
2017-07-18T01:49:00.962Z,31.80
2017-07-18T01:51:28.538Z,31.60
2017-07-18T01:53:56.328Z,31.70
2017-07-18T01:56:23.903Z,31.70
2017-07-18T01:58:51.476Z,31.70
2017-07-18T02:01:19.142Z,31.70
2017-07-18T02:03:47.061Z,31.70
2017-07-18T02:06:14.655Z,31.50
2017-07-18T02:08:42.271Z,31.50
2017-07-18T02:11:09.871Z,31.50
2017-07-18T02:13:37.483Z,31.50
2017-07-18T02:16:05.126Z,31.50
2017-07-18T02:18:32.756Z,31.60
2017-07-18T02:21:00.352Z,31.70
2017-07-18T02:23:27.966Z,31.80
2017-07-18T02:25:55.556Z,31.70
2017-07-18T02:28:23.267Z,31.70
2017-07-18T02:30:50.888Z,31.80
2017-07-18T02:33:20.096Z,32.00
2017-07-18T02:35:48.257Z,32.00
2017-07-18T02:38:16.468Z,32.00
2017-07-18T02:40:44.943Z,32.10
2017-07-18T02:43:13.127Z,32.20
2017-07-18T02:45:41.277Z,32.20
2017-07-18T02:48:09.876Z,32.10
2017-07-18T02:50:38.428Z,31.90
2017-07-18T02:53:07.023Z,31.90
2017-07-18T02:55:36.115Z,31.90
2017-07-18T02:58:04.513Z,31.90
2017-07-18T03:00:32.499Z,32.00
2017-07-18T03:03:00.070Z,32.00
2017-07-18T03:05:28.406Z,32.00
2017-07-18T03:07:56.042Z,31.90
2017-07-18T03:10:24.339Z,31.90
2017-07-18T03:12:51.898Z,31.80
2017-07-18T03:15:20.335Z,31.70
2017-07-18T03:17:48.674Z,31.70
2017-07-18T03:20:16.271Z,31.70
2017-07-18T03:22:43.903Z,31.70
2017-07-18T03:25:12.206Z,31.80
2017-07-18T03:27:39.785Z,31.80
2017-07-18T03:30:08.171Z,31.90
2017-07-18T03:32:35.771Z,32.00
2017-07-18T03:35:04.054Z,32.10
2017-07-18T03:37:31.786Z,32.10
2017-07-18T03:39:59.345Z,32.20
2017-07-18T03:42:26.906Z,32.10
2017-07-18T03:44:54.495Z,32.00
2017-07-18T03:47:22.086Z,31.90
2017-07-18T03:49:49.685Z,31.90
2017-07-18T03:52:17.320Z,32.00
2017-07-18T03:54:50.744Z,32.00
2017-07-18T03:57:18.366Z,32.40
2017-07-18T03:59:45.940Z,31.70
2017-07-18T04:02:13.507Z,31.70
2017-07-18T04:04:41.452Z,31.70
2017-07-18T04:07:09.042Z,31.70
2017-07-18T04:09:36.634Z,31.70
2017-07-18T04:12:04.272Z,31.60
2017-07-18T04:14:31.874Z,31.60
2017-07-18T04:16:59.475Z,31.70
2017-07-18T04:19:27.078Z,31.70
2017-07-18T04:21:54.671Z,31.80
2017-07-18T04:24:22.292Z,31.80
2017-07-18T04:26:49.919Z,31.80
2017-07-18T04:29:17.515Z,31.70
2017-07-18T04:31:45.090Z,31.70
2017-07-18T04:34:12.720Z,31.70
2017-07-18T04:36:40.295Z,31.70
2017-07-18T04:39:08.038Z,31.70
2017-07-18T04:41:35.659Z,31.70
2017-07-18T04:44:03.827Z,31.70
2017-07-18T04:46:31.419Z,31.90
2017-07-18T04:48:59.031Z,32.00
2017-07-18T04:51:26.635Z,32.00
2017-07-18T04:53:54.208Z,31.90
2017-07-18T04:56:22.446Z,32.00
2017-07-18T04:58:50.047Z,32.20
2017-07-18T05:01:18.330Z,32.10
2017-07-18T05:03:45.958Z,32.20
2017-07-18T05:06:13.552Z,32.10
2017-07-18T05:08:41.126Z,31.90
2017-07-18T05:11:08.950Z,31.70
2017-07-18T05:13:36.546Z,31.70
2017-07-18T05:16:04.515Z,31.70
2017-07-18T05:18:32.135Z,31.70
2017-07-18T05:20:59.732Z,31.70
2017-07-18T05:23:27.326Z,31.60
2017-07-18T05:25:54.951Z,31.60
2017-07-18T05:28:23.427Z,31.60
2017-07-18T05:30:50.999Z,31.70
2017-07-18T05:33:19.399Z,31.80
2017-07-18T05:35:46.995Z,31.70
2017-07-18T05:38:15.323Z,31.90
2017-07-18T05:40:42.928Z,31.80
2017-07-18T05:43:11.238Z,31.90
2017-07-18T05:45:39.570Z,32.00
2017-07-18T05:48:07.200Z,32.00
2017-07-18T05:50:34.806Z,32.10
2017-07-18T05:53:02.411Z,32.20
2017-07-18T05:55:30.038Z,32.10
2017-07-18T05:57:57.599Z,32.20
2017-07-18T06:00:25.183Z,31.90
2017-07-18T06:02:52.798Z,31.90
2017-07-18T06:05:20.363Z,31.70
2017-07-18T06:07:47.938Z,31.80
2017-07-18T06:10:15.536Z,31.70
2017-07-18T06:12:43.152Z,31.70
2017-07-18T06:15:10.954Z,31.80
2017-07-18T06:17:38.610Z,31.90
2017-07-18T06:20:06.209Z,31.50
2017-07-18T06:22:35.459Z,32.10
2017-07-18T06:25:03.087Z,31.40
2017-07-18T06:27:30.687Z,31.40
2017-07-18T06:29:59.878Z,31.50
2017-07-18T06:32:27.516Z,31.20
2017-07-18T06:34:55.416Z,31.20
2017-07-18T06:37:22.978Z,31.30
2017-07-18T06:39:50.619Z,31.50
2017-07-18T06:42:18.228Z,31.50
2017-07-18T06:44:45.875Z,31.80
2017-07-18T06:47:13.758Z,31.90
2017-07-18T06:49:41.355Z,32.00
2017-07-18T06:52:08.951Z,32.20
2017-07-18T06:54:36.551Z,32.20
2017-07-18T06:57:04.119Z,32.30
2017-07-18T06:59:31.682Z,32.30
2017-07-18T07:01:59.299Z,32.30
2017-07-18T07:04:26.892Z,32.30
2017-07-18T07:06:54.508Z,32.40
2017-07-18T07:09:22.131Z,32.40
2017-07-18T07:11:49.722Z,32.40
2017-07-18T07:14:17.319Z,32.50
2017-07-18T07:16:46.547Z,32.50
2017-07-18T07:19:14.133Z,32.50
2017-07-18T07:21:41.695Z,32.40
2017-07-18T07:24:09.664Z,32.50
2017-07-18T07:26:37.319Z,32.50
2017-07-18T07:29:04.889Z,32.60
2017-07-18T07:31:32.519Z,32.60
2017-07-18T07:34:00.131Z,32.60
2017-07-18T07:36:27.720Z,32.60
2017-07-18T07:38:56.114Z,32.60
2017-07-18T07:41:23.706Z,32.60
2017-07-18T07:43:51.310Z,32.20
2017-07-18T07:46:18.985Z,31.70
2017-07-18T07:48:46.786Z,31.40
2017-07-18T07:51:15.062Z,31.40
2017-07-18T07:56:35.907Z,32.10
2017-07-18T07:59:04.470Z,32.20
2017-07-18T08:01:32.741Z,32.00
2017-07-18T08:04:00.296Z,32.30
2017-07-18T08:06:27.830Z,32.20
2017-07-18T08:08:56.274Z,32.40
2017-07-18T08:11:23.866Z,32.30
2017-07-18T08:13:57.107Z,32.50
2017-07-18T08:16:25.389Z,32.50
2017-07-18T08:18:53.263Z,32.50
2017-07-18T08:21:20.818Z,32.30
2017-07-18T08:23:48.434Z,32.50
2017-07-18T08:26:16.023Z,32.50
2017-07-18T08:28:44.290Z,32.60
2017-07-18T08:31:12.438Z,32.40
2017-07-18T08:33:40.255Z,32.50
2017-07-18T08:36:08.048Z,32.60
2017-07-18T08:38:35.658Z,32.60
2017-07-18T08:41:03.319Z,32.70
2017-07-18T08:43:30.910Z,32.60
2017-07-18T08:45:59.311Z,32.60
2017-07-18T08:48:27.383Z,32.50
2017-07-18T08:50:55.566Z,32.60
2017-07-18T08:53:23.705Z,32.50
2017-07-18T08:55:51.262Z,32.60
2017-07-18T08:58:18.818Z,32.50
2017-07-18T09:00:47.848Z,32.60
2017-07-18T09:03:15.414Z,32.60
2017-07-18T09:05:42.986Z,32.50
2017-07-18T09:08:10.578Z,32.60
2017-07-18T09:10:38.162Z,32.70
2017-07-18T09:13:06.526Z,32.80
2017-07-18T09:15:34.150Z,32.70
2017-07-18T09:18:02.446Z,32.70
2017-07-18T09:20:30.035Z,32.80
2017-07-18T09:22:58.403Z,33.00
2017-07-18T09:25:25.967Z,32.90
2017-07-18T09:27:53.558Z,33.00
2017-07-18T09:30:21.170Z,33.00
2017-07-18T09:32:48.827Z,33.10
2017-07-18T09:35:16.881Z,33.00
2017-07-18T09:37:44.506Z,33.20
2017-07-18T09:40:12.110Z,33.30
2017-07-18T09:42:39.789Z,33.20
2017-07-18T09:45:08.123Z,33.40
2017-07-18T09:47:36.755Z,33.40
2017-07-18T09:50:04.365Z,33.30
2017-07-18T09:52:33.080Z,33.40
2017-07-18T09:55:00.690Z,33.40
2017-07-18T09:57:28.279Z,33.40
2017-07-18T09:59:56.684Z,33.40
2017-07-18T10:02:24.266Z,33.40
2017-07-18T10:04:52.506Z,33.40
2017-07-18T10:07:20.175Z,33.50
2017-07-18T10:09:48.506Z,33.50
2017-07-18T10:12:16.755Z,33.50
2017-07-18T10:14:44.532Z,33.50
2017-07-18T10:17:12.115Z,33.60
2017-07-18T10:19:40.330Z,33.50
2017-07-18T10:22:07.922Z,33.50
2017-07-18T10:24:36.279Z,33.60
2017-07-18T10:27:03.877Z,33.60
2017-07-18T10:29:32.276Z,33.60
2017-07-18T10:31:59.892Z,33.60
2017-07-18T10:34:27.938Z,33.60
2017-07-18T10:36:55.905Z,33.60
2017-07-18T10:39:23.587Z,33.60
2017-07-18T10:41:51.562Z,33.70
2017-07-18T10:44:19.908Z,33.70
2017-07-18T10:46:47.490Z,33.70
2017-07-18T10:49:15.111Z,33.70
2017-07-18T10:51:43.458Z,33.70
2017-07-18T10:54:16.939Z,33.70
2017-07-18T10:56:45.350Z,33.50
2017-07-18T10:59:13.688Z,33.70
2017-07-18T11:01:42.583Z,33.80
2017-07-18T11:04:10.629Z,33.80
2017-07-18T11:06:39.308Z,33.80
2017-07-18T11:09:06.911Z,33.80
2017-07-18T11:11:35.378Z,33.80
2017-07-18T11:14:02.975Z,33.90
2017-07-18T11:16:32.035Z,33.90
2017-07-18T11:18:59.691Z,33.90
2017-07-18T11:21:28.286Z,33.90
2017-07-18T11:23:55.876Z,33.90
2017-07-18T11:26:26.130Z,33.90
2017-07-18T11:28:53.747Z,33.90
2017-07-18T11:31:22.072Z,33.90
2017-07-18T11:33:49.682Z,34.00
2017-07-18T11:36:17.302Z,33.90
2017-07-18T11:38:45.242Z,34.00
2017-07-18T11:41:12.898Z,34.00
2017-07-18T11:43:40.579Z,34.00
2017-07-18T11:46:08.395Z,33.90
2017-07-18T11:48:37.140Z,34.00
2017-07-18T11:51:05.855Z,34.00
2017-07-18T11:53:34.246Z,34.10
2017-07-18T11:56:02.980Z,34.00
2017-07-18T11:58:30.598Z,34.00
2017-07-18T12:00:58.820Z,34.20
2017-07-18T12:03:27.128Z,34.30
2017-07-18T12:05:55.435Z,34.30
2017-07-18T12:08:24.261Z,34.40
2017-07-18T12:10:52.704Z,34.30
2017-07-18T12:13:20.379Z,34.40
2017-07-18T12:15:48.504Z,34.40
2017-07-18T12:18:28.321Z,34.40
2017-07-18T12:20:56.516Z,34.40
2017-07-18T12:23:24.122Z,34.40
2017-07-18T12:25:51.742Z,34.40
2017-07-18T12:28:19.379Z,34.50
2017-07-18T12:30:47.458Z,34.50
2017-07-18T12:33:15.383Z,34.50
2017-07-18T12:35:42.972Z,34.50
2017-07-18T12:38:10.556Z,34.10
2017-07-18T12:40:39.030Z,34.60
2017-07-18T12:43:07.267Z,34.60
2017-07-18T12:45:34.973Z,34.60
2017-07-18T12:48:02.674Z,34.60
2017-07-18T12:50:36.424Z,34.80
2017-07-18T12:53:15.379Z,34.70
2017-07-18T12:55:42.974Z,34.80
2017-07-18T12:58:10.793Z,34.90
2017-07-18T13:00:39.212Z,34.80
2017-07-18T13:03:06.843Z,34.70
2017-07-18T13:05:34.482Z,34.90
2017-07-18T13:08:02.105Z,34.90
2017-07-18T13:10:29.912Z,34.80
2017-07-18T13:12:57.830Z,34.90
2017-07-18T13:15:25.450Z,34.90
2017-07-18T13:17:53.030Z,34.80
2017-07-18T13:20:20.834Z,35.00
2017-07-18T13:22:48.471Z,34.90
2017-07-18T13:25:16.080Z,34.90
2017-07-18T13:27:43.659Z,35.00
2017-07-18T13:30:11.285Z,34.90
2017-07-18T13:32:39.791Z,35.10
2017-07-18T13:35:07.392Z,35.30
2017-07-18T13:37:35.024Z,35.30
2017-07-18T13:40:02.628Z,35.40
2017-07-18T13:42:30.240Z,35.30
2017-07-18T13:44:57.846Z,35.10
2017-07-18T13:47:26.242Z,35.20
2017-07-18T13:49:53.822Z,35.30
2017-07-18T13:52:21.425Z,35.20
2017-07-18T13:54:49.792Z,35.20
2017-07-18T13:57:17.400Z,35.10
2017-07-18T13:59:44.994Z,35.10
2017-07-18T14:02:12.906Z,35.20
2017-07-18T14:04:40.946Z,35.20
2017-07-18T14:07:08.916Z,35.20
2017-07-18T14:09:37.932Z,35.30
2017-07-18T14:12:05.501Z,35.40
2017-07-18T14:14:35.457Z,35.30
2017-07-18T14:17:03.030Z,35.20
2017-07-18T14:19:30.807Z,35.30
2017-07-18T14:21:59.283Z,35.50
2017-07-18T14:24:26.891Z,35.50
2017-07-18T14:26:54.496Z,35.40
2017-07-18T14:29:22.128Z,35.40
2017-07-18T14:31:49.702Z,35.40
2017-07-18T14:34:17.266Z,35.50
2017-07-18T14:36:44.891Z,35.40
2017-07-18T14:39:12.492Z,35.50
2017-07-18T14:41:40.100Z,35.50
2017-07-18T14:44:07.698Z,35.40
2017-07-18T14:46:35.364Z,35.50
2017-07-18T14:49:02.968Z,35.50
2017-07-18T14:51:30.566Z,35.50
2017-07-18T14:53:58.168Z,35.50
2017-07-18T14:56:25.778Z,35.60
2017-07-18T14:58:53.930Z,35.70
2017-07-18T15:01:21.527Z,35.90
2017-07-18T15:03:49.128Z,35.90
2017-07-18T15:06:16.777Z,35.90
2017-07-18T15:08:44.384Z,36.10
2017-07-18T15:11:11.963Z,36.20
2017-07-18T15:13:39.554Z,36.20
2017-07-18T15:16:07.704Z,36.00
2017-07-18T15:18:35.930Z,36.30
2017-07-18T15:21:03.620Z,36.40
2017-07-18T15:23:31.830Z,36.50
2017-07-18T15:25:59.395Z,36.20
2017-07-18T15:28:27.828Z,36.60
2017-07-18T15:30:55.846Z,36.90
2017-07-18T15:33:23.748Z,36.50
2017-07-18T15:35:51.428Z,36.40
2017-07-18T15:38:19.644Z,36.30
2017-07-18T15:40:47.258Z,36.20
2017-07-18T15:43:15.697Z,36.20
2017-07-18T15:45:43.300Z,36.10
2017-07-18T15:48:13.447Z,36.20
2017-07-18T15:50:42.024Z,36.30
2017-07-18T15:53:11.270Z,36.10
2017-07-18T15:55:38.980Z,36.20
2017-07-18T15:58:07.864Z,36.30
2017-07-18T16:00:35.506Z,36.20
2017-07-18T16:03:03.535Z,36.30
2017-07-18T16:05:31.266Z,36.30
2017-07-18T16:07:59.901Z,36.20
2017-07-18T16:10:27.584Z,36.40
2017-07-18T16:12:55.335Z,36.40
2017-07-18T16:15:22.990Z,36.30
2017-07-18T16:17:50.631Z,36.40
2017-07-18T16:20:18.334Z,36.40
2017-07-18T16:22:45.994Z,36.40
2017-07-18T16:25:13.725Z,36.50
2017-07-18T16:27:41.715Z,36.50
2017-07-18T16:30:09.395Z,36.70
2017-07-18T16:32:37.035Z,36.60
2017-07-18T16:35:04.763Z,36.70
2017-07-18T16:37:32.419Z,36.70
2017-07-18T16:40:00.079Z,36.80
2017-07-18T16:42:28.762Z,36.80
2017-07-18T16:44:56.433Z,36.90
2017-07-18T16:47:24.131Z,36.80
2017-07-18T16:49:51.778Z,36.90
2017-07-18T16:52:20.340Z,37.00
2017-07-18T16:54:49.057Z,37.00
2017-07-18T16:57:16.776Z,37.00
2017-07-18T16:59:44.569Z,37.10
2017-07-18T17:02:13.210Z,37.10
2017-07-18T17:04:40.868Z,37.10
2017-07-18T17:07:08.482Z,37.10
2017-07-18T17:09:36.160Z,37.10
2017-07-18T17:12:03.844Z,37.20
2017-07-18T17:14:31.455Z,37.20
2017-07-18T17:16:59.162Z,37.20
2017-07-18T17:19:27.778Z,37.30
2017-07-18T17:21:55.489Z,37.40
2017-07-18T17:24:23.142Z,37.50
2017-07-18T17:26:50.738Z,37.30
2017-07-18T17:29:19.353Z,37.50
2017-07-18T17:31:47.055Z,37.50
2017-07-18T17:34:15.048Z,37.50
2017-07-18T17:36:42.730Z,37.60
2017-07-18T17:39:11.624Z,37.70
2017-07-18T17:41:39.518Z,37.70
2017-07-18T17:44:07.134Z,37.70
2017-07-18T17:46:34.707Z,37.70
2017-07-18T17:49:02.875Z,37.70
2017-07-18T17:51:30.530Z,37.80
2017-07-18T17:53:58.317Z,38.00
2017-07-18T17:56:25.990Z,38.80
2017-07-18T17:58:54.358Z,38.90
2017-07-18T18:01:23.758Z,38.90
2017-07-18T18:03:51.506Z,38.80
2017-07-18T18:06:20.816Z,38.90
2017-07-18T18:08:49.219Z,39.20
2017-07-18T18:11:17.228Z,39.50
2017-07-18T18:13:44.928Z,39.00
2017-07-18T18:16:12.819Z,39.00
2017-07-18T18:18:40.471Z,39.00
2017-07-18T18:21:15.758Z,38.80
2017-07-18T18:23:44.114Z,38.40
2017-07-18T18:26:14.506Z,38.40
2017-07-18T18:28:43.420Z,38.60
2017-07-18T18:31:12.167Z,38.30
2017-07-18T18:33:40.028Z,39.40
2017-07-18T18:36:07.796Z,38.60
2017-07-18T18:38:35.990Z,38.80
2017-07-18T18:41:03.723Z,38.50
2017-07-18T18:43:32.418Z,38.20
2017-07-18T18:46:00.922Z,39.10
2017-07-18T18:48:29.635Z,38.60
2017-07-18T18:50:57.591Z,38.30
2017-07-18T18:53:25.195Z,38.50
2017-07-18T18:55:53.534Z,38.60
2017-07-18T18:58:21.115Z,38.60
2017-07-18T19:00:49.499Z,38.30
2017-07-18T19:03:17.420Z,39.10
2017-07-18T19:05:45.048Z,38.60
2017-07-18T19:08:12.707Z,38.60
2017-07-18T19:10:40.292Z,38.40
2017-07-18T19:13:07.899Z,38.40
2017-07-18T19:15:35.522Z,38.20
2017-07-18T19:18:03.117Z,37.90
2017-07-18T19:20:30.691Z,38.00
2017-07-18T19:22:58.343Z,37.80
2017-07-18T19:25:25.914Z,37.70
2017-07-18T19:27:53.821Z,37.80
2017-07-18T19:30:21.435Z,37.80
2017-07-18T19:32:49.015Z,38.30
2017-07-18T19:35:16.632Z,38.30
2017-07-18T19:37:44.951Z,38.00
2017-07-18T19:40:13.275Z,38.00
2017-07-18T19:42:40.888Z,37.90
2017-07-18T19:45:08.490Z,37.90
2017-07-18T19:47:36.830Z,37.90
2017-07-18T19:50:04.436Z,37.90
2017-07-18T19:52:32.048Z,37.80
2017-07-18T19:54:59.648Z,37.80
2017-07-18T19:57:27.287Z,37.80
2017-07-18T19:59:54.961Z,38.00
2017-07-18T20:02:22.568Z,37.90
2017-07-18T20:04:50.177Z,38.00
2017-07-18T20:07:17.813Z,38.00
2017-07-18T20:09:45.432Z,38.10
2017-07-18T20:12:13.015Z,38.00
2017-07-18T20:17:23.167Z,38.10
2017-07-18T20:19:50.787Z,38.20
2017-07-18T20:22:18.355Z,38.30
2017-07-18T20:24:45.915Z,38.50
2017-07-18T20:27:13.531Z,38.60
2017-07-18T20:29:41.098Z,38.50
2017-07-18T20:32:08.699Z,38.50
2017-07-18T20:34:36.298Z,38.40
2017-07-18T20:37:04.654Z,38.50
2017-07-18T20:39:32.248Z,38.50
2017-07-18T20:42:05.653Z,38.80
2017-07-18T20:44:33.235Z,38.80
2017-07-18T20:47:00.841Z,38.70
2017-07-18T20:49:28.480Z,38.60
2017-07-18T20:51:56.792Z,38.70
2017-07-18T20:54:24.404Z,38.70
2017-07-18T20:56:52.756Z,38.80
2017-07-18T20:59:20.516Z,38.80
2017-07-18T21:01:48.622Z,38.80
2017-07-18T21:04:16.224Z,38.80
2017-07-18T21:06:44.973Z,38.70
2017-07-18T21:09:12.583Z,38.80
2017-07-18T21:11:40.534Z,38.80
2017-07-18T21:14:10.939Z,38.80
2017-07-18T21:16:38.549Z,38.80
2017-07-18T21:19:06.994Z,38.70
2017-07-18T21:21:34.566Z,38.70
2017-07-18T21:24:02.951Z,38.90
2017-07-18T21:26:30.774Z,38.90
2017-07-18T21:28:58.839Z,38.90
2017-07-18T21:31:26.405Z,38.90
2017-07-18T21:33:55.676Z,38.90
2017-07-18T21:36:23.266Z,39.00
2017-07-18T21:38:51.763Z,38.90
2017-07-18T21:41:19.586Z,38.90
2017-07-18T21:43:47.683Z,38.80
2017-07-18T21:46:15.271Z,39.00
2017-07-18T21:48:42.870Z,38.90
2017-07-18T21:51:10.458Z,38.90
2017-07-18T21:53:38.383Z,39.50
2017-07-18T21:56:06.430Z,39.20
2017-07-18T21:58:34.033Z,39.20
2017-07-18T22:01:01.630Z,39.10
2017-07-18T22:03:29.338Z,39.30
2017-07-18T22:05:56.898Z,39.40
2017-07-18T22:08:24.475Z,39.50
2017-07-18T22:10:52.086Z,39.90
2017-07-18T22:13:19.735Z,39.50
2017-07-18T22:15:48.542Z,39.50
2017-07-18T22:18:45.861Z,39.50
2017-07-18T22:21:20.810Z,39.60
2017-07-18T22:23:50.502Z,39.80
2017-07-18T22:26:18.503Z,39.80
2017-07-18T22:28:46.100Z,39.90
2017-07-18T22:31:14.439Z,39.90
2017-07-18T22:33:42.915Z,39.90
2017-07-18T22:36:10.519Z,39.90
2017-07-18T22:38:38.133Z,39.90
2017-07-18T22:41:05.717Z,39.80
2017-07-18T22:43:33.326Z,39.70
2017-07-18T22:46:01.027Z,39.50
2017-07-18T22:48:28.649Z,39.40
2017-07-18T22:50:56.250Z,39.10
2017-07-18T22:53:23.853Z,39.10
2017-07-18T22:55:51.426Z,39.10
2017-07-18T22:58:19.002Z,39.10
2017-07-18T23:00:47.551Z,39.10
2017-07-18T23:03:15.133Z,39.10
2017-07-18T23:05:42.707Z,39.10
2017-07-18T23:08:10.323Z,39.10
2017-07-18T23:10:37.886Z,39.10
2017-07-18T23:13:05.791Z,39.10
2017-07-18T23:15:33.378Z,39.10
2017-07-18T23:18:00.938Z,39.10
2017-07-18T23:20:28.526Z,39.10
2017-07-18T23:22:56.147Z,39.00
2017-07-18T23:25:23.739Z,39.00
2017-07-18T23:27:51.331Z,39.10
2017-07-18T23:30:18.967Z,39.10
2017-07-18T23:32:46.558Z,39.10
2017-07-18T23:35:14.125Z,39.10
2017-07-18T23:37:41.746Z,39.10
2017-07-18T23:40:09.340Z,39.10
2017-07-18T23:42:36.926Z,39.00
2017-07-18T23:45:04.579Z,39.00
2017-07-18T23:47:32.166Z,39.00
2017-07-18T23:49:59.762Z,39.10
2017-07-18T23:52:27.387Z,39.10
2017-07-18T23:54:54.950Z,39.20
2017-07-18T23:57:22.567Z,39.20
2017-07-18T23:59:50.198Z,39.30
